Time;durP1;ratioP1;P1;durP2;ratioP2;P2;SDS_P1;SDS_P2;PMS_P1;PMS_P2;Temp;Humidity;BMP_temperature;BMP_pressure;BME280_temperature;BME280_humidity;BME280_pressure;Samples;Min_cycle;Max_cycle;Signal;HPM_P1;HPM_P2
2021/07/10 00:02:09;;;;;;;2.17;1.77;;;18.70;95.30;;;;;;6064298;29;20704;-70
2021/07/10 00:05:14;;;;;;;1.90;1.70;;;18.70;95.60;;;;;;6061366;29;20201;-70
2021/07/10 00:08:17;;;;;;;2.07;1.30;;;18.70;95.90;;;;;;6054268;29;20193;-69
2021/07/10 00:11:19;;;;;;;1.80;1.67;;;18.60;96.10;;;;;;6054439;29;20198;-70
2021/07/10 00:14:22;;;;;;;1.97;1.87;;;18.60;96.60;;;;;;6052484;29;20220;-69
2021/07/10 00:17:24;;;;;;;3.00;1.60;;;18.60;96.90;;;;;;6053242;29;20197;-70
2021/07/10 00:20:27;;;;;;;2.00;1.70;;;18.60;97.30;;;;;;6054301;29;20538;-69
2021/07/10 00:23:29;;;;;;;2.03;1.83;;;18.50;97.70;;;;;;6053927;29;20193;-70
2021/07/10 00:26:32;;;;;;;3.17;1.97;;;18.50;98.10;;;;;;6054593;29;20201;-69
2021/07/10 00:29:34;;;;;;;2.03;1.93;;;18.50;98.70;;;;;;6057435;29;20614;-70
2021/07/10 00:32:37;;;;;;;1.97;1.80;;;18.40;99.40;;;;;;6072911;29;20208;-69
2021/07/10 00:35:39;;;;;;;2.37;2.17;;;18.40;99.50;;;;;;6068274;29;20225;-69
2021/07/10 00:38:42;;;;;;;3.07;2.07;;;18.40;99.80;;;;;;6058480;29;20543;-70
2021/07/10 00:41:44;;;;;;;1.87;1.70;;;18.40;99.90;;;;;;6058672;29;20216;-69
2021/07/10 00:44:47;;;;;;;3.70;2.40;;;18.40;99.90;;;;;;6058060;29;20304;-70
2021/07/10 00:47:49;;;;;;;2.40;2.13;;;18.40;99.90;;;;;;6058692;29;20201;-70
2021/07/10 00:50:51;;;;;;;2.20;2.00;;;18.40;99.90;;;;;;6058709;29;20198;-70
2021/07/10 00:53:54;;;;;;;2.27;2.07;;;18.30;99.90;;;;;;6057866;29;20232;-70
2021/07/10 00:56:58;;;;;;;2.80;1.90;;;18.30;99.90;;;;;;6057327;29;20707;-69
2021/07/10 01:00:10;;;;;;;2.50;2.00;;;18.30;99.90;;;;;;6072192;29;20205;-70
2021/07/10 01:03:14;;;;;;;2.60;2.40;;;18.30;99.90;;;;;;6063830;29;20765;-70
2021/07/10 01:06:17;;;;;;;2.27;2.07;;;18.30;99.90;;;;;;6056595;29;20197;-70
2021/07/10 01:09:19;;;;;;;2.73;2.27;;;18.30;99.90;;;;;;6056981;29;20224;-70
2021/07/10 01:12:21;;;;;;;2.77;2.57;;;18.20;99.90;;;;;;6057837;29;20275;-70
2021/07/10 01:15:26;;;;;;;2.90;2.10;;;18.20;99.90;;;;;;6071901;29;20205;-70
2021/07/10 01:18:28;;;;;;;2.27;2.17;;;18.20;99.90;;;;;;6057989;29;20341;-70
2021/07/10 01:21:30;;;;;;;2.80;2.37;;;18.20;99.90;;;;;;6056288;29;20224;-70
2021/07/10 01:24:32;;;;;;;2.33;2.13;;;18.20;99.90;;;;;;6072021;29;20200;-70
2021/07/10 01:27:35;;;;;;;2.40;2.20;;;18.10;99.90;;;;;;6057682;29;20277;-70
2021/07/10 01:30:38;;;;;;;2.40;2.20;;;18.10;99.90;;;;;;6060535;29;20280;-70
2021/07/10 01:33:41;;;;;;;2.60;2.40;;;18.10;99.90;;;;;;6069737;29;20701;-70
2021/07/10 01:36:43;;;;;;;3.60;2.70;;;18.10;99.90;;;;;;6040499;29;20205;-70
2021/07/10 01:39:46;;;;;;;2.90;2.60;;;18.00;99.90;;;;;;6056146;29;20206;-70
2021/07/10 01:42:48;;;;;;;3.20;2.47;;;18.00;99.90;;;;;;6055971;29;20232;-71
2021/07/10 01:45:50;;;;;;;2.97;2.53;;;18.00;99.90;;;;;;6033942;29;20690;-70
2021/07/10 01:48:53;;;;;;;4.50;2.70;;;18.00;99.90;;;;;;6061149;29;20251;-70
2021/07/10 01:51:55;;;;;;;2.63;2.33;;;18.00;99.90;;;;;;6051030;29;20690;-69
2021/07/10 01:54:57;;;;;;;2.30;2.10;;;18.00;99.90;;;;;;6057259;29;20211;-70
2021/07/10 01:58:01;;;;;;;2.67;2.47;;;18.00;99.90;;;;;;6055607;29;20607;-70
2021/07/10 02:01:04;;;;;;;2.63;2.43;;;17.90;99.90;;;;;;6058894;29;20219;-70
2021/07/10 02:04:08;;;;;;;2.53;2.33;;;17.90;99.90;;;;;;6089427;29;20204;-69
2021/07/10 02:07:10;;;;;;;3.90;2.20;;;17.90;99.90;;;;;;6055286;29;20211;-70
2021/07/10 02:10:14;;;;;;;3.53;2.20;;;17.90;99.90;;;;;;6055837;29;20197;-70
2021/07/10 02:13:16;;;;;;;4.43;2.67;;;17.90;99.90;;;;;;6054881;29;20679;-70
2021/07/10 02:16:18;;;;;;;2.73;2.43;;;17.90;99.90;;;;;;6056565;29;20201;-70
2021/07/10 02:19:21;;;;;;;2.30;2.10;;;17.80;99.90;;;;;;6055420;29;20203;-70
2021/07/10 02:22:23;;;;;;;2.03;1.93;;;17.80;99.90;;;;;;6056120;29;20209;-70
2021/07/10 02:25:27;;;;;;;2.80;2.20;;;17.90;99.90;;;;;;6056355;29;20204;-71
2021/07/10 02:28:30;;;;;;;2.70;2.30;;;17.80;99.90;;;;;;6056093;29;20197;-70
2021/07/10 02:31:34;;;;;;;2.00;1.80;;;17.80;99.90;;;;;;6057770;29;20565;-70
2021/07/10 02:34:36;;;;;;;2.53;2.13;;;17.80;99.90;;;;;;6056159;29;20200;-70
2021/07/10 02:37:40;;;;;;;3.40;1.97;;;17.80;99.90;;;;;;6055998;29;20658;-70
2021/07/10 02:40:42;;;;;;;3.47;2.30;;;17.70;99.90;;;;;;6056146;29;20270;-71
2021/07/10 02:43:44;;;;;;;2.50;2.20;;;17.70;99.90;;;;;;6038898;29;20236;-70
2021/07/10 02:46:46;;;;;;;2.57;2.10;;;17.70;99.90;;;;;;6055994;29;20705;-70
2021/07/10 02:49:49;;;;;;;4.27;2.40;;;17.70;99.90;;;;;;6055219;29;20201;-69
2021/07/10 02:52:55;;;;;;;3.23;2.07;;;17.60;99.90;;;;;;6055919;29;20239;-70
2021/07/10 02:55:58;;;;;;;2.20;1.90;;;17.60;99.90;;;;;;6055817;29;20204;-71
2021/07/10 02:59:00;;;;;;;2.30;2.00;;;17.60;99.90;;;;;;6055713;29;20201;-70
2021/07/10 03:02:03;;;;;;;2.97;2.10;;;17.60;99.90;;;;;;6065052;29;20216;-71
2021/07/10 03:05:07;;;;;;;3.40;2.17;;;17.60;99.90;;;;;;6054140;29;20699;-70
2021/07/10 03:08:10;;;;;;;3.27;1.90;;;17.60;99.90;;;;;;6053594;29;20198;-70
2021/07/10 03:11:13;;;;;;;2.20;2.00;;;17.60;99.90;;;;;;6055376;29;20755;-70
2021/07/10 03:14:15;;;;;;;2.17;1.97;;;17.60;99.90;;;;;;6055022;29;20433;-70
2021/07/10 03:17:18;;;;;;;3.77;2.57;;;17.50;99.90;;;;;;6055415;29;20197;-70
2021/07/10 03:20:22;;;;;;;2.33;2.13;;;17.50;99.90;;;;;;6053733;29;20577;-71
2021/07/10 03:23:24;;;;;;;2.20;2.00;;;17.50;99.90;;;;;;6054946;29;20224;-70
2021/07/10 03:26:26;;;;;;;1.90;1.80;;;17.50;99.90;;;;;;6054056;29;20194;-70
2021/07/10 03:29:29;;;;;;;3.33;1.80;;;17.50;99.90;;;;;;6054959;29;20288;-70
2021/07/10 03:32:31;;;;;;;3.10;1.80;;;17.50;99.90;;;;;;6067235;29;20244;-70
2021/07/10 03:35:33;;;;;;;2.20;2.00;;;17.50;99.90;;;;;;6057920;29;20197;-70
2021/07/10 03:38:35;;;;;;;2.43;2.13;;;17.40;99.90;;;;;;6068720;29;20304;-69
2021/07/10 03:41:38;;;;;;;2.60;1.80;;;17.30;99.90;;;;;;6054169;29;20220;-70
2021/07/10 03:44:40;;;;;;;2.10;1.97;;;17.30;99.90;;;;;;6053060;29;20818;-70
2021/07/10 03:47:43;;;;;;;1.77;1.67;;;17.20;99.90;;;;;;6054475;29;20197;-70
2021/07/10 03:50:46;;;;;;;2.20;2.00;;;17.10;99.90;;;;;;6054020;29;20569;-70
2021/07/10 03:53:48;;;;;;;2.37;2.17;;;17.10;99.90;;;;;;6054188;29;20208;-70
2021/07/10 03:56:50;;;;;;;2.30;2.10;;;17.00;99.90;;;;;;6054174;29;20193;-70
2021/07/10 03:59:52;;;;;;;2.30;2.10;;;17.00;99.90;;;;;;6054256;29;20208;-70
2021/07/10 04:02:55;;;;;;;3.40;1.87;;;16.90;99.90;;;;;;6069716;29;20214;-70
2021/07/10 04:05:57;;;;;;;1.73;1.63;;;16.80;99.90;;;;;;6060274;29;20584;-70
2021/07/10 04:08:59;;;;;;;2.10;1.90;;;16.80;99.90;;;;;;6052971;29;20197;-70
2021/07/10 04:12:01;;;;;;;2.13;2.03;;;16.70;99.90;;;;;;6052324;29;20205;-69
2021/07/10 04:15:05;;;;;;;2.50;2.30;;;16.70;99.90;;;;;;6054803;29;20276;-69
2021/07/10 04:18:07;;;;;;;2.63;2.10;;;16.60;99.90;;;;;;6054107;29;20674;-70
2021/07/10 04:21:10;;;;;;;2.10;1.90;;;16.60;99.90;;;;;;6053623;29;20195;-69
2021/07/10 04:24:12;;;;;;;4.10;2.13;;;16.60;99.90;;;;;;6053916;29;20193;-69
2021/07/10 04:27:14;;;;;;;2.30;2.10;;;16.60;99.90;;;;;;6053562;29;20209;-69
2021/07/10 04:30:19;;;;;;;3.70;2.37;;;16.60;99.90;;;;;;6052570;29;20358;-70
2021/07/10 04:33:21;;;;;;;2.27;2.10;;;16.60;99.90;;;;;;6058254;29;20202;-70
2021/07/10 04:36:23;;;;;;;2.90;2.70;;;16.70;99.90;;;;;;6054022;29;20233;-70
2021/07/10 04:39:26;;;;;;;2.63;2.37;;;16.70;99.90;;;;;;6053792;29;20196;-70
2021/07/10 04:42:28;;;;;;;2.50;2.30;;;16.80;99.90;;;;;;6036540;29;20224;-70
2021/07/10 04:45:30;;;;;;;2.90;2.60;;;17.00;99.90;;;;;;6053542;29;20262;-70
2021/07/10 04:48:32;;;;;;;4.10;2.40;;;17.10;99.90;;;;;;6053432;29;20197;-70
2021/07/10 04:51:34;;;;;;;3.03;2.83;;;17.10;99.90;;;;;;6053569;29;20202;-70
2021/07/10 04:54:37;;;;;;;3.53;2.90;;;17.10;99.90;;;;;;6052278;29;20209;-70
2021/07/10 04:57:40;;;;;;;5.13;2.90;;;17.20;99.90;;;;;;6052075;29;20410;-70
2021/07/10 05:00:43;;;;;;;3.60;2.30;;;17.20;99.90;;;;;;6053574;29;20197;-70
2021/07/10 05:03:46;;;;;;;2.90;2.60;;;17.20;99.90;;;;;;6065610;29;20273;-70
2021/07/10 05:06:48;;;;;;;3.00;2.80;;;17.30;99.90;;;;;;6052296;29;20197;-69
2021/07/10 05:09:51;;;;;;;2.20;2.00;;;17.40;99.90;;;;;;6053537;29;20277;-70
2021/07/10 05:12:54;;;;;;;4.13;2.33;;;17.40;99.90;;;;;;6069124;29;20634;-68
2021/07/10 05:15:56;;;;;;;3.60;2.40;;;17.40;99.90;;;;;;6057804;29;20201;-69
2021/07/10 05:19:00;;;;;;;2.33;2.10;;;17.50;99.90;;;;;;6057032;29;20213;-68
2021/07/10 05:22:04;;;;;;;2.13;2.03;;;17.70;99.90;;;;;;6057457;29;20220;-72
2021/07/10 05:25:07;;;;;;;2.50;2.30;;;17.90;99.90;;;;;;6040381;29;20194;-69
2021/07/10 05:28:09;;;;;;;2.33;2.13;;;18.00;99.90;;;;;;6057470;29;20198;-70
2021/07/10 05:31:12;;;;;;;2.10;1.87;;;18.00;99.90;;;;;;6059061;29;20653;-70
2021/07/10 05:34:14;;;;;;;2.27;2.07;;;18.10;99.90;;;;;;6074016;29;20249;-70
2021/07/10 05:37:16;;;;;;;1.80;1.70;;;18.10;99.90;;;;;;6056022;29;20292;-70
2021/07/10 05:40:19;;;;;;;2.20;2.00;;;18.00;99.90;;;;;;6057236;29;20200;-70
2021/07/10 05:43:23;;;;;;;3.03;2.03;;;18.00;99.90;;;;;;6055622;29;20309;-70
2021/07/10 05:46:26;;;;;;;2.83;1.83;;;17.90;99.90;;;;;;6055506;29;20317;-70
2021/07/10 05:49:28;;;;;;;2.60;2.10;;;17.90;99.90;;;;;;6055295;29;20689;-70
2021/07/10 05:52:30;;;;;;;4.23;1.97;;;17.90;99.90;;;;;;6056866;29;20205;-70
2021/07/10 05:55:33;;;;;;;3.00;2.27;;;18.00;99.90;;;;;;6055262;29;20211;-70
2021/07/10 05:58:35;;;;;;;2.23;1.87;;;18.00;99.90;;;;;;6056622;29;20284;-70
2021/07/10 06:01:37;;;;;;;2.00;1.77;;;18.00;99.90;;;;;;6058470;29;20198;-70
2021/07/10 06:04:40;;;;;;;2.03;1.93;;;18.00;99.90;;;;;;6055179;29;20629;-70
2021/07/10 06:07:42;;;;;;;2.37;1.60;;;18.00;99.90;;;;;;6056554;29;20193;-70
2021/07/10 06:10:44;;;;;;;2.07;1.87;;;18.00;99.90;;;;;;6056168;29;20637;-70
2021/07/10 06:13:46;;;;;;;2.57;1.70;;;18.00;99.90;;;;;;6056231;29;20208;-70
2021/07/10 06:16:49;;;;;;;2.73;1.67;;;18.00;99.90;;;;;;6055921;29;20592;-70
2021/07/10 06:19:51;;;;;;;2.00;1.90;;;18.10;99.90;;;;;;6055032;29;20206;-70
2021/07/10 06:22:53;;;;;;;1.90;1.50;;;18.10;99.90;;;;;;6054788;29;20216;-70
2021/07/10 06:25:55;;;;;;;1.50;1.40;;;18.20;99.90;;;;;;6054967;29;20638;-69
2021/07/10 06:29:00;;;;;;;3.10;1.40;;;18.40;99.90;;;;;;6055828;29;20329;-69
2021/07/10 06:32:02;;;;;;;1.20;1.10;;;18.50;99.90;;;;;;6063844;29;20294;-70
2021/07/10 06:35:07;;;;;;;1.07;1.03;;;18.50;99.90;;;;;;6055842;29;20771;-69
2021/07/10 06:38:09;;;;;;;2.53;1.20;;;18.60;99.90;;;;;;6054448;29;20205;-69
2021/07/10 06:41:11;;;;;;;1.40;1.23;;;18.80;99.90;;;;;;6053994;29;20205;-71
2021/07/10 06:44:14;;;;;;;1.47;1.10;;;18.90;99.90;;;;;;6055408;29;20232;-67
2021/07/10 06:47:18;;;;;;;2.20;1.20;;;19.00;99.90;;;;;;6053861;29;20556;-68
2021/07/10 06:50:21;;;;;;;1.20;1.10;;;19.10;99.90;;;;;;6055784;29;20334;-68
2021/07/10 06:53:23;;;;;;;1.90;0.80;;;19.40;99.90;;;;;;6054118;29;20532;-68
2021/07/10 06:56:26;;;;;;;2.70;1.10;;;19.60;99.90;;;;;;6055170;29;20272;-67
2021/07/10 06:59:28;;;;;;;2.03;1.00;;;20.00;99.80;;;;;;6055263;29;20194;-68
2021/07/10 07:02:30;;;;;;;1.00;0.90;;;20.40;99.20;;;;;;6068092;29;20670;-67
2021/07/10 07:05:33;;;;;;;1.37;1.20;;;20.70;97.90;;;;;;6060312;29;20651;-67
2021/07/10 07:08:35;;;;;;;1.13;1.00;;;20.80;97.00;;;;;;6053734;29;20294;-67
2021/07/10 07:11:37;;;;;;;1.97;0.90;;;20.90;96.10;;;;;;6055232;29;20600;-68
2021/07/10 07:14:40;;;;;;;1.07;1.00;;;21.10;95.50;;;;;;6055548;29;20197;-68
2021/07/10 07:17:42;;;;;;;1.90;0.90;;;21.10;94.40;;;;;;6053472;29;20203;-69
2021/07/10 07:20:45;;;;;;;0.87;0.87;;;21.00;93.90;;;;;;6054984;29;20322;-69
2021/07/10 07:23:47;;;;;;;1.70;0.73;;;21.10;93.90;;;;;;6054370;29;20295;-67
2021/07/10 07:26:50;;;;;;;0.80;0.70;;;21.30;93.70;;;;;;6054966;29;20752;-68
2021/07/10 07:29:52;;;;;;;1.70;0.80;;;21.60;92.60;;;;;;6054614;29;20198;-68
2021/07/10 07:32:54;;;;;;;0.63;0.60;;;21.90;91.90;;;;;;6070485;29;20699;-68
2021/07/10 07:35:57;;;;;;;1.47;0.80;;;22.00;90.40;;;;;;6063356;29;20193;-67
2021/07/10 07:39:01;;;;;;;1.07;0.80;;;22.10;90.40;;;;;;6054775;29;20213;-76
2021/07/10 07:42:04;;;;;;;2.60;0.60;;;22.30;88.30;;;;;;6054035;29;20209;-76
2021/07/10 07:45:09;;;;;;;0.63;0.60;;;22.50;86.00;;;;;;6057510;29;20304;-74
2021/07/10 07:48:11;;;;;;;0.90;0.90;;;22.60;86.10;;;;;;6054866;29;20204;-77
2021/07/10 07:51:19;;;;;;;0.50;0.50;;;22.80;85.20;;;;;;6070723;29;20261;-75
2021/07/10 07:54:22;;;;;;;0.77;0.70;;;23.10;83.90;;;;;;6054396;29;20201;-70
2021/07/10 07:57:25;;;;;;;1.53;0.80;;;23.30;83.20;;;;;;6059251;29;20688;-71
2021/07/10 08:00:27;;;;;;;2.00;0.70;;;23.60;82.10;;;;;;6058835;29;20193;-71
2021/07/10 08:03:30;;;;;;;0.70;0.70;;;24.00;80.40;;;;;;6065139;29;20669;-71
2021/07/10 08:06:32;;;;;;;0.90;0.80;;;24.30;79.10;;;;;;6058856;29;20234;-71
2021/07/10 08:09:35;;;;;;;1.37;0.80;;;24.60;77.20;;;;;;6070834;29;20671;-71
2021/07/10 08:12:38;;;;;;;0.97;0.50;;;24.70;75.10;;;;;;6053967;29;20204;-70
2021/07/10 08:15:40;;;;;;;0.73;0.63;;;25.00;74.70;;;;;;6052303;29;20713;-70
2021/07/10 08:18:42;;;;;;;1.07;0.57;;;25.10;71.30;;;;;;6052709;29;20229;-71
2021/07/10 08:21:45;;;;;;;0.63;0.63;;;25.00;70.40;;;;;;6053990;29;20209;-70
2021/07/10 08:24:48;;;;;;;1.07;0.70;;;25.30;70.20;;;;;;6053489;29;20705;-70
2021/07/10 08:27:50;;;;;;;1.10;0.50;;;25.50;68.60;;;;;;6053762;29;20201;-70
2021/07/10 08:30:52;;;;;;;0.80;0.73;;;25.50;67.40;;;;;;6052979;29;20248;-70
2021/07/10 08:33:54;;;;;;;1.50;0.77;;;25.80;67.20;;;;;;6067680;29;20197;-71
2021/07/10 08:36:57;;;;;;;0.50;0.50;;;26.00;65.80;;;;;;6050839;29;20239;-72
2021/07/10 08:39:59;;;;;;;0.60;0.60;;;26.20;64.30;;;;;;6052252;29;20670;-71
2021/07/10 08:43:02;;;;;;;0.50;0.50;;;26.30;64.00;;;;;;6052315;29;20297;-71
2021/07/10 08:46:05;;;;;;;1.00;0.70;;;26.30;62.50;;;;;;6044383;29;20237;-71
2021/07/10 08:49:08;;;;;;;1.13;0.70;;;26.30;63.30;;;;;;6054431;29;20193;-70
2021/07/10 08:52:11;;;;;;;0.70;0.70;;;26.20;62.10;;;;;;6058044;29;20193;-71
2021/07/10 08:55:14;;;;;;;0.45;0.45;;;26.20;62.20;;;;;;6058157;29;20273;-71
2021/07/10 08:58:20;;;;;;;1.75;0.73;;;26.10;60.60;;;;;;6056834;29;20202;-71
2021/07/10 09:01:23;;;;;;;0.50;0.40;;;26.00;61.20;;;;;;6045536;29;20220;-71
2021/07/10 09:04:26;;;;;;;0.90;0.60;;;26.20;61.60;;;;;;6075448;29;20295;-71
2021/07/10 09:07:28;;;;;;;0.98;0.63;;;26.60;61.20;;;;;;6057633;29;20257;-71
2021/07/10 09:10:37;;;;;;;0.55;0.55;;;26.90;59.20;;;;;;6058128;29;20197;-72
2021/07/10 09:13:45;;;;;;;2.05;0.70;;;27.40;58.60;;;;;;6057623;29;20646;-71
2021/07/10 09:16:47;;;;;;;1.20;0.60;;;27.90;58.20;;;;;;6056120;29;20269;-71
2021/07/10 09:19:52;;;;;;;1.85;0.60;;;28.20;56.80;;;;;;6057751;29;20226;-71
2021/07/10 09:22:55;;;;;;;0.60;0.60;;;28.20;55.70;;;;;;6056144;29;20213;-70
2021/07/10 09:26:20;;;;;;;0.50;0.50;;;28.50;55.30;;;;;;6057306;29;20221;-71
2021/07/10 09:29:30;;;;;;;0.40;0.40;;;28.90;55.40;;;;;;6057045;29;20197;-71
2021/07/10 09:32:32;;;;;;;0.93;0.70;;;29.30;54.30;;;;;;6061014;29;20655;-71
2021/07/10 09:35:46;;;;;;;0.93;0.70;;;29.10;52.60;;;;;;6055994;29;20197;-70
2021/07/10 09:38:53;;;;;;;0.88;0.63;;;28.80;53.50;;;;;;6056819;29;20598;-70
2021/07/10 09:41:57;;;;;;;0.80;0.60;;;28.80;54.30;;;;;;6056962;29;20178;-71
2021/07/10 09:45:00;;;;;;;0.50;0.50;;;28.80;54.00;;;;;;6056590;29;20559;-70
2021/07/10 09:48:09;;;;;;;2.47;0.75;;;28.90;52.90;;;;;;6040529;29;20201;-71
2021/07/10 09:51:30;;;;;;;0.75;0.70;;;29.10;53.30;;;;;;6056939;29;20205;-70
2021/07/10 09:54:43;;;;;;;0.65;0.65;;;29.30;51.50;;;;;;6056700;29;20668;-71
2021/07/10 09:57:47;;;;;;;0.93;0.47;;;29.20;51.40;;;;;;6055596;29;20205;-70
2021/07/10 10:00:49;;;;;;;1.27;0.70;;;28.70;50.60;;;;;;6054228;29;20201;-70
2021/07/10 10:03:51;;;;;;;0.50;0.50;;;28.80;52.70;;;;;;6067132;29;20213;-71
2021/07/10 10:06:55;;;;;;;0.60;0.60;;;29.30;51.50;;;;;;6056234;29;20283;-70
2021/07/10 10:09:59;;;;;;;0.82;0.60;;;29.60;52.00;;;;;;6056496;29;20674;-70
2021/07/10 10:13:04;;;;;;;1.38;0.60;;;29.80;51.10;;;;;;6056379;29;20345;-70
2021/07/10 10:16:14;;;;;;;0.40;0.40;;;30.10;50.80;;;;;;6054705;29;20541;-71
2021/07/10 10:19:25;;;;;;;0.40;0.40;;;30.00;49.20;;;;;;6056515;29;20269;-70
2021/07/10 10:22:28;;;;;;;0.47;0.47;;;30.00;49.10;;;;;;6055869;29;20204;-71
2021/07/10 10:25:30;;;;;;;0.52;0.52;;;30.30;49.90;;;;;;6055952;29;20200;-70
2021/07/10 10:28:33;;;;;;;0.35;0.32;;;30.60;49.20;;;;;;6055699;29;20201;-71
2021/07/10 10:31:40;;;;;;;0.55;0.50;;;30.30;48.90;;;;;;6060818;29;20287;-71
2021/07/10 10:34:43;;;;;;;0.70;0.70;;;30.20;48.10;;;;;;6068198;29;20228;-69
2021/07/10 10:37:46;;;;;;;0.60;0.60;;;30.10;47.50;;;;;;6055581;29;20283;-70
2021/07/10 10:40:51;;;;;;;0.88;0.50;;;29.90;48.40;;;;;;6055553;29;20203;-69
2021/07/10 10:43:55;;;;;;;0.63;0.50;;;29.90;48.30;;;;;;6055134;29;20244;-70
2021/07/10 10:46:58;;;;;;;0.40;0.40;;;29.70;47.40;;;;;;6052491;29;20732;-69
2021/07/10 10:50:14;;;;;;;0.57;0.50;;;29.80;48.60;;;;;;6056058;29;20265;-70
2021/07/10 10:53:22;;;;;;;0.38;0.38;;;30.00;47.60;;;;;;6053738;29;20213;-71
2021/07/10 10:56:39;;;;;;;0.50;0.50;;;30.40;47.40;;;;;;6055380;29;20193;-71
2021/07/10 10:59:43;;;;;;;0.40;0.40;;;30.70;46.40;;;;;;6055114;29;20201;-70
2021/07/10 11:03:04;;;;;;;0.40;0.40;;;31.00;45.80;;;;;;6070395;29;20559;-71
2021/07/10 11:06:26;;;;;;;0.85;0.60;;;30.80;47.30;;;;;;6063581;29;20201;-71
2021/07/10 11:10:07;;;;;;;0.95;0.40;;;31.30;45.40;;;;;;6055019;29;20209;-71
2021/07/10 11:13:26;;;;;;;0.45;0.45;;;32.00;44.20;;;;;;6013163;29;20209;-71
2021/07/10 11:16:28;;;;;;;0.40;0.40;;;32.60;44.20;;;;;;6013860;29;20680;-72
2021/07/10 11:19:45;;;;;;;0.40;0.40;;;33.10;43.30;;;;;;6014003;29;20218;-70
2021/07/10 11:22:56;;;;;;;1.33;0.30;;;33.10;41.60;;;;;;6028574;29;20298;-71
2021/07/10 11:26:10;;;;;;;0.55;0.55;;;32.70;42.80;;;;;;6028904;29;20338;-71
2021/07/10 11:29:32;;;;;;;0.30;0.30;;;32.40;42.90;;;;;;6028678;29;20744;-71
2021/07/10 11:32:43;;;;;;;0.60;0.38;;;32.50;42.20;;;;;;6015441;29;20210;-70
2021/07/10 11:35:46;;;;;;;0.68;0.47;;;32.20;43.80;;;;;;6012487;29;20277;-70
2021/07/10 11:38:48;;;;;;;1.42;0.40;;;32.30;44.60;;;;;;6028550;29;20674;-70
2021/07/10 11:41:53;;;;;;;0.40;0.40;;;32.60;43.00;;;;;;6028832;29;20670;-70
2021/07/10 11:45:04;;;;;;;0.40;0.40;;;33.10;42.60;;;;;;6064403;29;20244;-71
2021/07/10 11:48:26;;;;;;;0.40;0.40;;;33.50;42.80;;;;;;6054585;29;20666;-70
2021/07/10 11:51:29;;;;;;;0.47;0.47;;;34.00;41.40;;;;;;6053090;29;20198;-70
2021/07/10 11:54:33;;;;;;;0.60;0.50;;;34.00;41.00;;;;;;6054244;29;20208;-70
2021/07/10 11:57:40;;;;;;;0.68;0.40;;;33.90;40.80;;;;;;6054369;29;20197;-70
2021/07/10 12:00:44;;;;;;;0.32;0.32;;;32.70;40.80;;;;;;6054698;29;20272;-70
2021/07/10 12:03:46;;;;;;;0.40;0.40;;;32.00;40.90;;;;;;6068685;29;20205;-70
2021/07/10 12:06:49;;;;;;;0.32;0.32;;;31.70;41.30;;;;;;6052552;29;20280;-69
2021/07/10 12:09:52;;;;;;;1.13;0.50;;;32.00;41.30;;;;;;6052888;29;20442;-70
2021/07/10 12:13:00;;;;;;;0.60;0.60;;;32.30;41.40;;;;;;6053761;29;20568;-71
2021/07/10 12:16:06;;;;;;;1.05;0.55;;;32.60;42.00;;;;;;6053968;29;20182;-70
2021/07/10 12:19:14;;;;;;;0.50;0.50;;;32.90;40.90;;;;;;6052837;29;20689;-70
2021/07/10 12:22:23;;;;;;;0.50;0.50;;;32.80;40.60;;;;;;6053287;29;20207;-71
2021/07/10 12:25:29;;;;;;;1.08;0.52;;;32.80;41.10;;;;;;6058937;29;20201;-70
2021/07/10 12:28:35;;;;;;;0.50;0.50;;;32.80;40.80;;;;;;6058187;29;20573;-69
2021/07/10 12:31:38;;;;;;;0.60;0.50;;;32.60;40.70;;;;;;6064990;29;20271;-70
2021/07/10 12:34:51;;;;;;;0.47;0.20;;;32.60;40.40;;;;;;6073981;29;20205;-70
2021/07/10 12:38:08;;;;;;;0.50;0.50;;;32.60;39.70;;;;;;6040129;29;20205;-70
2021/07/10 12:41:24;;;;;;;0.30;0.30;;;32.90;40.10;;;;;;6057468;29;20206;-71
2021/07/10 12:44:35;;;;;;;1.50;0.65;;;33.30;41.50;;;;;;6057535;29;20296;-69
2021/07/10 12:47:38;;;;;;;0.70;0.50;;;33.40;39.40;;;;;;6057310;29;20353;-70
2021/07/10 12:50:40;;;;;;;1.92;0.73;;;33.70;38.70;;;;;;6058140;29;20196;-71
2021/07/10 12:53:45;;;;;;;0.65;0.43;;;33.80;39.10;;;;;;6058053;29;20240;-70
2021/07/10 12:56:47;;;;;;;0.82;0.50;;;33.80;38.30;;;;;;6057968;29;20249;-70
2021/07/10 12:59:52;;;;;;;1.20;0.35;;;34.10;38.50;;;;;;6058245;29;20202;-70
2021/07/10 13:03:06;;;;;;;1.65;0.50;;;34.10;38.80;;;;;;6061323;29;20665;-70
2021/07/10 13:06:09;;;;;;;0.45;0.45;;;34.20;38.50;;;;;;6057457;29;20201;-71
2021/07/10 13:09:11;;;;;;;1.20;0.60;;;34.10;38.70;;;;;;6058177;29;20583;-70
2021/07/10 13:12:14;;;;;;;0.47;0.47;;;34.30;38.60;;;;;;6057629;29;20193;-70
2021/07/10 13:15:18;;;;;;;1.20;0.60;;;34.80;39.00;;;;;;6057717;29;20568;-70
2021/07/10 13:18:26;;;;;;;1.65;0.60;;;34.80;38.10;;;;;;6057891;29;20201;-71
2021/07/10 13:21:31;;;;;;;0.47;0.43;;;34.80;38.30;;;;;;6057337;29;20666;-70
2021/07/10 13:24:34;;;;;;;0.50;0.47;;;35.00;37.50;;;;;;6057477;29;20213;-70
2021/07/10 13:27:36;;;;;;;0.50;0.50;;;35.20;37.60;;;;;;6057246;29;20642;-72
2021/07/10 13:30:38;;;;;;;0.43;0.43;;;34.90;37.90;;;;;;6057502;29;20201;-69
2021/07/10 13:33:43;;;;;;;0.73;0.60;;;35.20;37.70;;;;;;6068988;29;20198;-70
2021/07/10 13:36:47;;;;;;;2.25;0.50;;;35.80;36.80;;;;;;6056115;29;20194;-69
2021/07/10 13:39:50;;;;;;;1.38;0.47;;;36.20;35.90;;;;;;6056129;29;20197;-67
2021/07/10 13:42:59;;;;;;;1.13;0.68;;;36.50;35.20;;;;;;6055676;29;20591;-70
2021/07/10 13:46:09;;;;;;;0.50;0.50;;;35.80;35.20;;;;;;6056951;29;20308;-70
2021/07/10 13:49:25;;;;;;;0.60;0.52;;;34.40;36.10;;;;;;6055606;29;20665;-69
2021/07/10 13:52:30;;;;;;;0.47;0.47;;;34.50;37.50;;;;;;6055798;29;20198;-70
2021/07/10 13:55:32;;;;;;;2.10;0.60;;;35.00;35.90;;;;;;6055545;29;20201;-71
2021/07/10 13:58:34;;;;;;;0.50;0.50;;;35.20;35.70;;;;;;6056601;29;20234;-70
2021/07/10 14:01:37;;;;;;;0.57;0.57;;;35.30;35.10;;;;;;6063235;29;20200;-69
2021/07/10 14:04:39;;;;;;;0.93;0.63;;;35.80;35.50;;;;;;6069570;29;20209;-69
2021/07/10 14:07:50;;;;;;;0.50;0.50;;;36.10;34.10;;;;;;6055495;29;20598;-69
2021/07/10 14:10:53;;;;;;;0.80;0.57;;;35.80;35.00;;;;;;6054766;29;20281;-69
2021/07/10 14:13:55;;;;;;;0.55;0.55;;;36.40;35.00;;;;;;6056306;29;20190;-70
2021/07/10 14:16:57;;;;;;;2.05;0.50;;;36.60;34.40;;;;;;6056473;29;20197;-69
2021/07/10 14:20:00;;;;;;;1.77;0.60;;;36.20;34.20;;;;;;6056390;29;20721;-70
2021/07/10 14:23:03;;;;;;;1.00;0.43;;;36.30;34.20;;;;;;6056478;29;20280;-70
2021/07/10 14:26:05;;;;;;;1.17;0.55;;;37.10;34.60;;;;;;6055745;29;20220;-70
2021/07/10 14:29:11;;;;;;;1.25;0.50;;;38.10;33.60;;;;;;6056143;29;20251;-70
2021/07/10 14:32:13;;;;;;;1.05;0.50;;;38.60;32.00;;;;;;6055540;29;20208;-70
2021/07/10 14:35:16;;;;;;;0.70;0.70;;;39.30;31.80;;;;;;6055602;29;20205;-70
2021/07/10 14:38:18;;;;;;;0.93;0.50;;;39.60;32.00;;;;;;6070346;29;20278;-70
2021/07/10 14:41:20;;;;;;;0.50;0.50;;;40.20;31.70;;;;;;6054319;29;20189;-70
2021/07/10 14:44:23;;;;;;;2.05;0.60;;;40.70;30.70;;;;;;6055206;29;20329;-70
2021/07/10 14:47:26;;;;;;;1.25;0.60;;;40.70;31.10;;;;;;6055246;29;20205;-69
2021/07/10 14:50:28;;;;;;;0.43;0.43;;;41.00;30.30;;;;;;6054611;29;20235;-70
2021/07/10 14:53:30;;;;;;;0.50;0.50;;;41.30;29.70;;;;;;6055429;29;20189;-70
2021/07/10 14:56:36;;;;;;;0.80;0.45;;;41.60;29.80;;;;;;6055321;29;20673;-69
2021/07/10 14:59:39;;;;;;;0.40;0.40;;;41.60;29.40;;;;;;6038737;29;20575;-70
2021/07/10 15:02:41;;;;;;;0.50;0.40;;;41.00;29.80;;;;;;6063636;29;20194;-70
2021/07/10 15:05:43;;;;;;;2.83;0.50;;;41.00;29.90;;;;;;6055119;29;20223;-70
2021/07/10 15:08:46;;;;;;;1.05;0.50;;;40.80;29.90;;;;;;6055383;29;20653;-69
2021/07/10 15:11:48;;;;;;;0.77;0.55;;;40.80;30.60;;;;;;6053648;29;20201;-69
2021/07/10 15:14:50;;;;;;;1.38;0.50;;;40.90;29.70;;;;;;6053827;29;20376;-70
2021/07/10 15:17:52;;;;;;;0.60;0.60;;;41.40;30.00;;;;;;6054774;29;20280;-70
2021/07/10 15:20:54;;;;;;;0.40;0.40;;;41.80;29.50;;;;;;6055550;29;20541;-69
2021/07/10 15:23:57;;;;;;;1.55;0.50;;;40.70;29.20;;;;;;6054884;29;20220;-69
2021/07/10 15:26:59;;;;;;;0.77;0.50;;;40.60;29.50;;;;;;6054511;29;20671;-69
2021/07/10 15:30:01;;;;;;;0.55;0.50;;;40.80;29.50;;;;;;6055044;29;20673;-70
2021/07/10 15:33:04;;;;;;;0.40;0.40;;;40.50;30.20;;;;;;6069397;29;20205;-69
2021/07/10 15:36:06;;;;;;;0.57;0.57;;;40.50;29.90;;;;;;6054658;29;20712;-69
2021/07/10 15:39:08;;;;;;;0.90;0.73;;;40.60;30.20;;;;;;6054771;29;20569;-69
2021/07/10 15:42:11;;;;;;;1.20;0.40;;;40.30;30.20;;;;;;6054777;29;20724;-69
2021/07/10 15:45:14;;;;;;;0.73;0.50;;;40.50;29.90;;;;;;6054287;29;20260;-69
2021/07/10 15:48:21;;;;;;;0.50;0.47;;;40.10;29.80;;;;;;6054106;29;20669;-69
2021/07/10 15:51:23;;;;;;;0.40;0.40;;;40.00;30.20;;;;;;6053377;29;20198;-67
2021/07/10 15:54:26;;;;;;;0.32;0.32;;;40.20;29.80;;;;;;6053942;29;20603;-67
2021/07/10 15:57:29;;;;;;;0.40;0.40;;;40.40;30.20;;;;;;6053266;29;20567;-69
2021/07/10 16:00:31;;;;;;;1.42;0.40;;;40.40;29.70;;;;;;6054346;29;20205;-70